createdAt,value
2019-04-01T00:02:14.429Z,61.00
2019-04-01T00:04:45.992Z,61.30
2019-04-01T00:07:18.809Z,61.00
2019-04-01T00:09:50.436Z,61.70
2019-04-01T00:12:21.927Z,61.90
2019-04-01T00:14:53.534Z,62.40
2019-04-01T00:17:25.378Z,62.80
2019-04-01T00:19:57.168Z,63.40
2019-04-01T00:22:28.941Z,63.60
2019-04-01T00:25:00.822Z,63.80
2019-04-01T00:27:32.468Z,64.30
2019-04-01T00:30:04.294Z,64.70
2019-04-01T00:32:36.049Z,64.90
2019-04-01T00:35:07.712Z,65.70
2019-04-01T00:37:39.441Z,66.00
2019-04-01T00:40:11.321Z,66.20
2019-04-01T00:42:55.167Z,66.20
2019-04-01T00:45:27.407Z,66.40
2019-04-01T00:47:59.291Z,67.60
2019-04-01T00:50:31.218Z,67.20
2019-04-01T00:53:04.214Z,67.30
2019-04-01T00:55:36.156Z,67.70
2019-04-01T00:58:07.938Z,67.90
2019-04-01T01:00:39.648Z,68.20
2019-04-01T01:03:11.564Z,68.50
2019-04-01T01:05:43.246Z,69.00
2019-04-01T01:08:14.818Z,69.20
2019-04-01T01:10:46.568Z,69.50
2019-04-01T01:13:18.128Z,70.20
2019-04-01T01:15:49.839Z,70.50
2019-04-01T01:18:21.550Z,71.00
2019-04-01T01:20:53.260Z,71.20
2019-04-01T01:23:25.053Z,71.40
2019-04-01T01:25:56.845Z,71.80
2019-04-01T01:28:28.941Z,71.50
2019-04-01T01:31:00.804Z,72.60
2019-04-01T01:33:32.560Z,73.10
2019-04-01T01:36:05.593Z,73.30
2019-04-01T01:38:37.301Z,74.00
2019-04-01T01:41:09.273Z,74.60
2019-04-01T01:43:41.020Z,75.70
2019-04-01T01:46:13.966Z,75.40
2019-04-01T01:48:45.809Z,75.80
2019-04-01T01:51:17.740Z,76.10
2019-04-01T01:53:50.228Z,76.50
2019-04-01T01:56:21.873Z,76.90
2019-04-01T01:58:53.721Z,77.20
2019-04-01T02:01:25.370Z,77.60
2019-04-01T02:03:57.318Z,78.60
2019-04-01T02:06:29.130Z,78.10
2019-04-01T02:09:00.774Z,78.40
2019-04-01T02:11:32.678Z,78.60
2019-04-01T02:14:04.518Z,79.00
2019-04-01T02:16:36.313Z,79.20
2019-04-01T02:19:07.877Z,79.60
2019-04-01T02:21:39.820Z,79.80
2019-04-01T02:24:11.531Z,79.90
2019-04-01T02:26:43.430Z,80.20
2019-04-01T02:29:15.265Z,80.30
2019-04-01T02:31:46.880Z,80.40
2019-04-01T02:34:18.500Z,80.60
2019-04-01T02:36:50.556Z,80.60
2019-04-01T02:39:22.185Z,80.90
2019-04-01T02:41:54.105Z,81.10
2019-04-01T02:44:25.934Z,81.40
2019-04-01T02:46:57.654Z,81.70
2019-04-01T02:49:29.362Z,81.70
2019-04-01T02:52:01.029Z,81.70
2019-04-01T02:54:33.767Z,81.60
2019-04-01T02:57:05.804Z,81.70
2019-04-01T02:59:37.864Z,81.60
2019-04-01T03:02:09.369Z,81.70
2019-04-01T03:04:41.567Z,81.70
2019-04-01T03:07:13.652Z,81.50
2019-04-01T03:09:45.406Z,81.60
2019-04-01T03:12:17.390Z,81.70
2019-04-01T03:14:49.300Z,81.90
2019-04-01T03:17:21.535Z,81.80
2019-04-01T03:19:53.294Z,81.70
2019-04-01T03:22:25.510Z,81.90
2019-04-01T03:24:57.392Z,81.90
2019-04-01T03:27:29.153Z,81.80
2019-04-01T03:30:00.765Z,81.90
2019-04-01T03:32:32.574Z,81.80
2019-04-01T03:35:04.652Z,81.70
2019-04-01T03:37:36.672Z,81.60
2019-04-01T03:40:09.830Z,81.60
2019-04-01T03:42:41.966Z,81.90
2019-04-01T03:45:14.205Z,82.60
2019-04-01T03:47:46.112Z,82.00
2019-04-01T03:50:17.950Z,82.20
2019-04-01T03:52:49.740Z,82.40
2019-04-01T03:55:21.613Z,82.40
2019-04-01T03:57:53.781Z,82.50
2019-04-01T04:00:25.710Z,82.50
2019-04-01T04:02:57.753Z,82.70
2019-04-01T04:05:29.787Z,82.70
2019-04-01T04:08:02.608Z,82.70
2019-04-01T04:10:34.659Z,82.80
2019-04-01T04:13:06.975Z,83.70
2019-04-01T04:15:39.040Z,82.90
2019-04-01T04:18:10.684Z,83.00
2019-04-01T04:20:42.361Z,83.00
2019-04-01T04:23:14.164Z,83.00
2019-04-01T04:25:46.025Z,83.00
2019-04-01T04:28:18.547Z,83.00
2019-04-01T04:30:55.488Z,83.00
2019-04-01T04:33:27.365Z,83.00
2019-04-01T04:35:59.065Z,83.10
2019-04-01T04:38:30.746Z,83.30
2019-04-01T04:41:02.829Z,83.30
2019-04-01T04:43:34.676Z,83.50
2019-04-01T04:46:06.477Z,83.60
2019-04-01T04:48:38.676Z,83.60
2019-04-01T04:51:10.614Z,83.80
2019-04-01T04:53:42.502Z,83.80
2019-04-01T04:56:14.484Z,84.60
2019-04-01T04:58:47.425Z,84.10
2019-04-01T05:01:19.865Z,84.00
2019-04-01T05:03:52.081Z,84.70
2019-04-01T05:06:23.971Z,84.20
2019-04-01T05:08:56.294Z,84.40
2019-04-01T05:11:28.589Z,84.30
2019-04-01T05:14:00.445Z,84.20
2019-04-01T05:16:32.199Z,84.40
2019-04-01T05:19:05.655Z,84.60
2019-04-01T05:21:37.527Z,85.50
2019-04-01T05:24:09.401Z,84.70
2019-04-01T05:26:41.149Z,84.70
2019-04-01T05:29:14.323Z,84.80
2019-04-01T05:31:47.505Z,84.60
2019-04-01T05:34:19.779Z,84.80
2019-04-01T05:36:51.583Z,84.80
2019-04-01T05:39:23.842Z,84.60
2019-04-01T05:41:55.829Z,84.60
2019-04-01T05:44:28.579Z,84.60
2019-04-01T05:47:00.543Z,84.70
2019-04-01T05:49:32.475Z,84.50
2019-04-01T05:52:06.220Z,85.20
2019-04-01T05:54:38.158Z,84.00
2019-04-01T05:57:09.983Z,83.70
2019-04-01T05:59:42.672Z,83.50
2019-04-01T06:02:15.064Z,83.50
2019-04-01T06:04:47.457Z,83.30
2019-04-01T06:07:19.583Z,83.10
2019-04-01T06:09:52.447Z,82.20
2019-04-01T06:12:24.809Z,82.50
2019-04-01T06:14:57.001Z,82.30
2019-04-01T06:17:29.856Z,82.30
2019-04-01T06:20:01.564Z,81.90
2019-04-01T06:22:33.656Z,81.70
2019-04-01T06:25:05.633Z,81.40
2019-04-01T06:27:38.298Z,81.40
2019-04-01T06:30:10.413Z,81.40
2019-04-01T06:32:42.275Z,81.50
2019-04-01T06:35:14.298Z,81.30
2019-04-01T06:37:45.962Z,81.00
2019-04-01T06:40:18.837Z,80.70
2019-04-01T06:42:50.609Z,80.50
2019-04-01T06:45:24.172Z,80.60
2019-04-01T06:47:56.069Z,80.60
2019-04-01T06:50:27.857Z,80.60
2019-04-01T06:53:00.432Z,80.20
2019-04-01T06:55:32.247Z,79.80
2019-04-01T06:58:05.968Z,79.90
2019-04-01T07:00:38.730Z,79.00
2019-04-01T07:03:10.771Z,73.90
2019-04-01T07:05:45.698Z,67.70
2019-04-01T07:08:17.655Z,63.00
2019-04-01T07:10:49.839Z,58.90
2019-04-01T07:13:21.579Z,56.20
2019-04-01T07:15:54.174Z,54.80
2019-04-01T07:18:25.900Z,53.40
2019-04-01T07:20:58.577Z,51.70
2019-04-01T07:23:31.076Z,49.60
2019-04-01T07:26:02.947Z,47.80
2019-04-01T07:28:35.215Z,46.50
2019-04-01T07:31:06.855Z,45.70
2019-04-01T07:33:38.969Z,45.70
2019-04-01T07:36:12.660Z,45.30
2019-04-01T07:38:45.873Z,44.90
2019-04-01T07:41:17.692Z,43.60
2019-04-01T07:43:51.308Z,42.10
2019-04-01T07:46:23.159Z,41.40
2019-04-01T07:48:54.803Z,39.70
2019-04-01T07:51:27.189Z,38.40
2019-04-01T07:54:01.775Z,37.40
2019-04-01T07:56:33.912Z,37.10
2019-04-01T07:59:05.603Z,36.60
2019-04-01T08:01:37.617Z,36.60
2019-04-01T08:04:10.868Z,36.00
2019-04-01T08:06:43.037Z,35.50
2019-04-01T08:09:15.481Z,35.30
2019-04-01T08:11:50.100Z,36.10
2019-04-01T08:14:21.271Z,35.90
2019-04-01T08:16:53.300Z,35.10
2019-04-01T08:19:26.095Z,34.80
2019-04-01T08:21:59.553Z,34.80
2019-04-01T08:24:31.341Z,35.10
2019-04-01T08:27:07.253Z,33.80
2019-04-01T08:29:37.693Z,32.70
2019-04-01T08:32:09.794Z,32.90
2019-04-01T08:34:41.749Z,34.60
2019-04-01T08:37:13.788Z,35.10
2019-04-01T08:39:46.806Z,35.30
2019-04-01T08:42:19.583Z,37.10
2019-04-01T08:44:51.479Z,39.10
2019-04-01T08:47:24.487Z,41.10
2019-04-01T08:49:56.618Z,41.70
2019-04-01T08:52:28.490Z,41.40
2019-04-01T08:55:00.469Z,41.00
2019-04-01T08:57:34.108Z,40.10
2019-04-01T09:00:08.472Z,39.60
2019-04-01T09:02:40.577Z,40.00
2019-04-01T09:05:12.645Z,40.10
2019-04-01T09:07:46.741Z,39.70
2019-04-01T09:10:19.291Z,38.50
2019-04-01T09:12:51.715Z,36.60
2019-04-01T09:15:24.069Z,35.10
2019-04-01T09:17:56.792Z,35.20
2019-04-01T09:20:28.633Z,35.30
2019-04-01T09:23:02.380Z,34.70
2019-04-01T09:25:34.363Z,35.00
2019-04-01T09:28:06.197Z,35.40
2019-04-01T09:30:37.881Z,35.90
2019-04-01T09:33:09.786Z,37.70
2019-04-01T09:35:43.284Z,39.10
2019-04-01T09:38:15.520Z,40.10
2019-04-01T09:40:48.639Z,39.70
2019-04-01T09:43:21.673Z,39.40
2019-04-01T09:45:55.080Z,38.80
2019-04-01T09:48:27.195Z,38.00
2019-04-01T09:50:59.253Z,38.10
2019-04-01T09:53:31.619Z,39.20
2019-04-01T09:56:03.954Z,40.70
2019-04-01T09:58:35.647Z,41.70
2019-04-01T10:01:07.597Z,42.00
2019-04-01T10:03:39.646Z,41.70
2019-04-01T10:06:13.660Z,41.10
2019-04-01T10:08:45.933Z,40.60
2019-04-01T10:11:21.076Z,40.70
2019-04-01T10:13:53.487Z,40.20
2019-04-01T10:16:26.573Z,38.60
2019-04-01T10:18:58.833Z,36.90
2019-04-01T10:21:31.004Z,35.80
2019-04-01T10:24:04.074Z,34.40
2019-04-01T10:26:36.453Z,33.50
2019-04-01T10:29:08.079Z,31.50
2019-04-01T10:31:40.419Z,31.50
2019-04-01T10:34:12.472Z,31.50
2019-04-01T10:36:44.621Z,31.00
2019-04-01T10:39:17.590Z,30.20
2019-04-01T10:41:49.621Z,29.70
2019-04-01T10:44:21.568Z,29.10
2019-04-01T10:46:53.317Z,29.00
2019-04-01T10:49:25.657Z,29.70
2019-04-01T10:51:57.705Z,31.20
2019-04-01T10:54:30.239Z,32.70
2019-04-01T10:57:02.376Z,33.70
2019-04-01T10:59:34.643Z,34.70
2019-04-01T11:02:06.461Z,35.30
2019-04-01T11:04:38.331Z,35.00
2019-04-01T11:07:10.351Z,34.80
2019-04-01T11:09:42.457Z,34.70
2019-04-01T11:12:14.646Z,34.40
2019-04-01T11:14:46.449Z,34.20
2019-04-01T11:17:18.947Z,33.90
2019-04-01T11:19:53.175Z,33.80
2019-04-01T11:22:25.308Z,33.60
2019-04-01T11:24:57.387Z,33.80
2019-04-01T11:27:29.553Z,33.90
2019-04-01T11:30:02.107Z,34.00
2019-04-01T11:32:34.519Z,33.70
2019-04-01T11:35:06.544Z,33.80
2019-04-01T11:37:38.477Z,33.60
2019-04-01T11:40:12.205Z,33.60
2019-04-01T11:42:44.777Z,33.50
2019-04-01T11:45:17.051Z,33.10
2019-04-01T11:47:50.444Z,32.90
2019-04-01T11:50:22.691Z,33.30
2019-04-01T11:52:54.624Z,33.60
2019-04-01T11:55:26.862Z,33.60
2019-04-01T11:57:58.846Z,33.80
2019-04-01T12:00:30.809Z,33.60
2019-04-01T12:03:03.399Z,33.30
2019-04-01T12:05:35.411Z,33.10
2019-04-01T12:08:08.247Z,32.80
2019-04-01T12:10:39.931Z,32.70
2019-04-01T12:13:12.010Z,32.60
2019-04-01T12:15:44.168Z,32.70
2019-04-01T12:18:15.927Z,32.70
2019-04-01T12:20:47.529Z,32.90
2019-04-01T12:23:19.253Z,32.70
2019-04-01T12:25:51.984Z,32.30
2019-04-01T12:28:24.037Z,32.50
2019-04-01T12:30:56.583Z,32.50
2019-04-01T12:33:28.431Z,32.40
2019-04-01T12:36:00.518Z,32.30
2019-04-01T12:38:32.272Z,32.30
2019-04-01T12:41:04.665Z,32.40
2019-04-01T12:43:38.117Z,32.50
2019-04-01T12:46:09.985Z,32.20
2019-04-01T12:48:42.247Z,32.10
2019-04-01T12:51:14.066Z,31.50
2019-04-01T12:53:46.861Z,31.40
2019-04-01T12:56:23.834Z,31.50
2019-04-01T12:58:57.054Z,31.40
2019-04-01T13:01:29.081Z,31.50
2019-04-01T13:04:04.250Z,31.60
2019-04-01T13:06:35.681Z,31.50
2019-04-01T13:09:08.459Z,31.60
2019-04-01T13:11:40.529Z,31.60
2019-04-01T13:14:13.814Z,31.40
2019-04-01T13:16:46.271Z,32.20
2019-04-01T13:19:18.227Z,31.40
2019-04-01T13:21:50.606Z,31.50
2019-04-01T13:24:22.478Z,31.40
2019-04-01T13:26:54.550Z,31.30
2019-04-01T13:29:26.499Z,31.30
2019-04-01T13:32:00.610Z,31.30
2019-04-01T13:34:32.860Z,31.10
2019-04-01T13:37:05.207Z,30.90
2019-04-01T13:39:37.451Z,31.00
2019-04-01T13:42:09.542Z,31.10
2019-04-01T13:44:41.921Z,31.20
2019-04-01T13:47:14.961Z,30.90
2019-04-01T13:49:46.812Z,30.90
2019-04-01T13:52:18.953Z,30.90
2019-04-01T13:54:50.889Z,30.70
2019-04-01T13:57:22.875Z,30.50
2019-04-01T13:59:56.758Z,30.50
2019-04-01T14:02:31.034Z,30.50
2019-04-01T14:05:05.673Z,30.30
2019-04-01T14:07:36.097Z,29.60
2019-04-01T14:10:08.849Z,29.50
2019-04-01T14:12:40.461Z,29.10
2019-04-01T14:15:13.314Z,28.80
2019-04-01T14:17:47.145Z,28.90
2019-04-01T14:20:19.161Z,29.20
2019-04-01T14:22:53.548Z,29.70
2019-04-01T14:25:25.101Z,29.90
2019-04-01T14:27:57.283Z,30.10
2019-04-01T14:30:28.997Z,30.00
2019-04-01T14:33:02.954Z,30.00
2019-04-01T14:35:35.992Z,29.90
2019-04-01T14:38:09.604Z,29.20
2019-04-01T14:40:41.386Z,28.50
2019-04-01T14:43:13.852Z,28.00
2019-04-01T14:45:45.663Z,28.00
2019-04-01T14:48:17.801Z,28.00
2019-04-01T14:50:50.071Z,28.40
2019-04-01T14:53:22.053Z,28.60
2019-04-01T14:55:54.296Z,28.70
2019-04-01T14:58:26.821Z,28.70
2019-04-01T15:00:58.694Z,29.00
2019-04-01T15:03:30.893Z,29.10
2019-04-01T15:06:02.615Z,29.20
2019-04-01T15:08:34.849Z,29.30
2019-04-01T15:11:08.065Z,29.40
2019-04-01T15:13:41.797Z,29.40
2019-04-01T15:16:13.845Z,28.90
2019-04-01T15:18:46.275Z,28.70
2019-04-01T15:21:19.711Z,28.70
2019-04-01T15:23:53.277Z,28.80
2019-04-01T15:26:25.377Z,28.80
2019-04-01T15:28:57.031Z,28.90
2019-04-01T15:31:28.841Z,29.10
2019-04-01T15:34:00.753Z,29.00
2019-04-01T15:36:33.558Z,28.80
2019-04-01T15:39:07.451Z,28.70
2019-04-01T15:41:39.489Z,28.70
2019-04-01T15:44:12.991Z,28.70
2019-04-01T15:46:45.945Z,28.70
2019-04-01T15:49:17.954Z,28.70
2019-04-01T15:51:50.925Z,28.70
2019-04-01T15:54:24.800Z,28.60
2019-04-01T15:56:58.194Z,28.60
2019-04-01T15:59:30.340Z,28.60
2019-04-01T16:02:04.710Z,28.30
2019-04-01T16:04:37.220Z,28.30
2019-04-01T16:07:09.322Z,28.20
2019-04-01T16:09:41.279Z,28.40
2019-04-01T16:12:13.307Z,28.70
2019-04-01T16:14:46.077Z,28.80
2019-04-01T16:17:17.873Z,28.80
2019-04-01T16:19:50.488Z,29.10
2019-04-01T16:22:23.752Z,29.90
2019-04-01T16:24:56.858Z,29.80
2019-04-01T16:27:29.109Z,30.00
2019-04-01T16:30:01.883Z,30.20
2019-04-01T16:32:34.392Z,29.80
2019-04-01T16:35:06.730Z,29.70
2019-04-01T16:37:38.552Z,29.70
2019-04-01T16:40:10.349Z,29.90
2019-04-01T16:42:42.087Z,30.10
2019-04-01T16:45:14.307Z,30.20
2019-04-01T16:47:48.448Z,30.30
2019-04-01T16:50:19.921Z,30.50
2019-04-01T16:52:52.241Z,30.80
2019-04-01T16:55:24.894Z,31.10
2019-04-01T16:57:57.548Z,31.20
2019-04-01T17:00:29.870Z,31.40
2019-04-01T17:03:01.773Z,31.70
2019-04-01T17:05:36.630Z,31.80
2019-04-01T17:08:10.037Z,32.00
2019-04-01T17:10:42.529Z,32.30
2019-04-01T17:13:14.773Z,32.30
2019-04-01T17:15:46.886Z,32.40
2019-04-01T17:18:18.793Z,32.70
2019-04-01T17:20:50.845Z,32.90
2019-04-01T17:23:22.959Z,33.20
2019-04-01T17:25:55.331Z,33.40
2019-04-01T17:28:27.725Z,33.70
2019-04-01T17:30:59.929Z,34.00
2019-04-01T17:33:32.129Z,34.20
2019-04-01T17:36:04.152Z,34.50
2019-04-01T17:38:36.477Z,34.70
2019-04-01T17:41:08.363Z,34.80
2019-04-01T17:43:40.311Z,34.90
2019-04-01T17:46:12.634Z,35.10
2019-04-01T17:48:44.479Z,35.00
2019-04-01T17:51:16.367Z,35.10
2019-04-01T17:53:48.223Z,35.00
2019-04-01T17:56:20.498Z,35.00
2019-04-01T17:58:53.315Z,35.00
2019-04-01T18:01:25.072Z,35.20
2019-04-01T18:03:56.822Z,35.30
2019-04-01T18:06:28.998Z,35.40
2019-04-01T18:09:00.745Z,35.50
2019-04-01T18:11:32.659Z,35.50
2019-04-01T18:14:05.653Z,35.60
2019-04-01T18:16:37.715Z,35.80
2019-04-01T18:19:09.748Z,36.10
2019-04-01T18:21:41.627Z,36.30
2019-04-01T18:24:13.609Z,36.50
2019-04-01T18:26:46.085Z,36.70
2019-04-01T18:29:18.569Z,36.80
2019-04-01T18:31:50.945Z,37.00
2019-04-01T18:34:24.034Z,37.10
2019-04-01T18:36:55.869Z,37.20
2019-04-01T18:39:29.874Z,37.10
2019-04-01T18:42:02.905Z,37.10
2019-04-01T18:44:34.482Z,37.10
2019-04-01T18:47:06.813Z,37.20
2019-04-01T18:49:38.544Z,37.30
2019-04-01T18:52:10.165Z,37.30
2019-04-01T18:54:42.243Z,37.30
2019-04-01T18:57:14.192Z,37.40
2019-04-01T18:59:46.197Z,37.50
2019-04-01T19:02:18.115Z,37.70
2019-04-01T19:04:50.070Z,37.70
2019-04-01T19:07:22.162Z,37.70
2019-04-01T19:10:05.467Z,37.80
2019-04-01T19:12:27.448Z,37.80
2019-04-01T19:15:02.043Z,37.80
2019-04-01T19:17:33.119Z,38.00
2019-04-01T19:20:05.449Z,38.70
2019-04-01T19:22:37.225Z,38.50
2019-04-01T19:25:09.949Z,38.00
2019-04-01T19:27:42.255Z,37.90
2019-04-01T19:30:15.504Z,37.90
2019-04-01T19:32:48.775Z,37.80
2019-04-01T19:35:20.729Z,38.00
2019-04-01T19:37:52.331Z,38.10
2019-04-01T19:40:24.322Z,38.10
2019-04-01T19:42:56.114Z,38.10
2019-04-01T19:45:27.928Z,38.10
2019-04-01T19:47:59.736Z,38.10
2019-04-01T19:50:31.504Z,38.20
2019-04-01T19:53:03.480Z,38.20
2019-04-01T19:55:35.444Z,38.30
2019-04-01T19:58:07.357Z,38.40
2019-04-01T20:00:41.537Z,38.40
2019-04-01T20:03:13.313Z,38.50
2019-04-01T20:05:45.643Z,38.50
2019-04-01T20:08:17.487Z,38.50
2019-04-01T20:10:49.124Z,38.40
2019-04-01T20:13:20.927Z,38.30
2019-04-01T20:15:52.951Z,38.40
2019-04-01T20:18:24.969Z,38.40
2019-04-01T20:20:56.961Z,38.40
2019-04-01T20:23:28.690Z,38.50
2019-04-01T20:26:00.891Z,38.70
2019-04-01T20:28:32.543Z,38.60
2019-04-01T20:31:06.276Z,38.60
2019-04-01T20:33:38.024Z,38.50
2019-04-01T20:36:09.983Z,38.50
2019-04-01T20:38:41.991Z,38.60
2019-04-01T20:41:13.862Z,38.60
2019-04-01T20:43:45.823Z,38.60
2019-04-01T20:46:17.719Z,38.60
2019-04-01T20:48:49.679Z,38.60
2019-04-01T20:51:21.372Z,38.70
2019-04-01T20:53:55.083Z,38.60
2019-04-01T20:56:27.155Z,38.70
2019-04-01T20:58:58.885Z,38.70
2019-04-01T21:01:30.611Z,38.80
2019-04-01T21:04:02.317Z,38.80
2019-04-01T21:06:34.199Z,38.90
2019-04-01T21:09:08.426Z,38.90
2019-04-01T21:11:40.340Z,38.90
2019-04-01T21:14:12.225Z,39.10
2019-04-01T21:16:43.854Z,39.20
2019-04-01T21:19:16.281Z,39.40
2019-04-01T21:21:48.591Z,39.60
2019-04-01T21:24:21.041Z,39.70
2019-04-01T21:26:52.833Z,39.90
2019-04-01T21:29:25.065Z,40.10
2019-04-01T21:31:57.084Z,40.30
2019-04-01T21:34:28.889Z,40.50
2019-04-01T21:37:03.247Z,40.70
2019-04-01T21:39:34.733Z,40.80
2019-04-01T21:42:06.746Z,41.00
2019-04-01T21:44:39.671Z,41.10
2019-04-01T21:47:12.108Z,41.20
2019-04-01T21:49:44.682Z,41.30
2019-04-01T21:52:16.557Z,41.40
2019-04-01T21:54:48.167Z,41.50
2019-04-01T21:57:20.629Z,41.60
2019-04-01T21:59:52.535Z,41.50
2019-04-01T22:02:35.493Z,41.60
2019-04-01T22:04:57.605Z,41.60
2019-04-01T22:07:30.843Z,41.60
2019-04-01T22:10:03.222Z,41.70
2019-04-01T22:12:35.361Z,41.70
2019-04-01T22:15:09.311Z,41.80
2019-04-01T22:17:41.293Z,42.00
2019-04-01T22:20:13.030Z,42.00
2019-04-01T22:22:44.694Z,42.10
2019-04-01T22:25:16.397Z,42.20
2019-04-01T22:27:47.864Z,42.30
2019-04-01T22:30:19.655Z,42.40
2019-04-01T22:32:51.506Z,42.50
2019-04-01T22:35:24.077Z,42.70
2019-04-01T22:37:56.757Z,42.90
2019-04-01T22:40:30.505Z,42.80
2019-04-01T22:43:02.151Z,42.70
2019-04-01T22:45:33.883Z,42.90
2019-04-01T22:48:05.667Z,43.10
2019-04-01T22:50:38.267Z,43.10
2019-04-01T22:53:10.403Z,43.20
2019-04-01T22:55:42.149Z,43.90
2019-04-01T22:58:13.788Z,43.30
2019-04-01T23:00:46.204Z,43.40
2019-04-01T23:03:18.869Z,43.40
2019-04-01T23:05:50.447Z,43.50
2019-04-01T23:08:22.273Z,43.60
2019-04-01T23:10:53.938Z,43.60
2019-04-01T23:13:25.797Z,43.60
2019-04-01T23:15:57.453Z,43.70
2019-04-01T23:18:29.051Z,43.60
2019-04-01T23:21:02.017Z,43.60
2019-04-01T23:23:33.887Z,43.60
2019-04-01T23:26:05.601Z,43.60
2019-04-01T23:28:37.489Z,43.60
2019-04-01T23:31:09.838Z,43.50
2019-04-01T23:33:41.445Z,43.60
2019-04-01T23:36:13.630Z,43.60
2019-04-01T23:38:45.857Z,43.60
2019-04-01T23:41:17.403Z,43.70
2019-04-01T23:43:48.912Z,43.70
2019-04-01T23:46:20.571Z,43.60
2019-04-01T23:48:52.219Z,43.60
2019-04-01T23:51:23.902Z,43.60
2019-04-01T23:53:55.512Z,43.70
2019-04-01T23:56:27.305Z,43.60
2019-04-01T23:58:59.275Z,43.80
